sensor_id;sensor_type;location;lat;lon;timestamp;pressure;altitude;pressure_sealevel;temperature
53667;BMP280;39568;51.026;5.468;2022-10-10T00:01:36;100647.41;;;7.21
53667;BMP280;39568;51.026;5.468;2022-10-10T00:04:04;100646.69;;;7.20
53667;BMP280;39568;51.026;5.468;2022-10-10T00:06:31;100643.75;;;7.18
53667;BMP280;39568;51.026;5.468;2022-10-10T00:08:57;100643.41;;;7.25
53667;BMP280;39568;51.026;5.468;2022-10-10T00:11:24;100639.75;;;7.23
53667;BMP280;39568;51.026;5.468;2022-10-10T00:13:52;100636.22;;;7.11
53667;BMP280;39568;51.026;5.468;2022-10-10T00:16:20;100643.53;;;7.02
53667;BMP280;39568;51.026;5.468;2022-10-10T00:18:47;100641.72;;;6.93
53667;BMP280;39568;51.026;5.468;2022-10-10T00:21:18;100638.69;;;6.86
53667;BMP280;39568;51.026;5.468;2022-10-10T00:23:45;100633.78;;;6.79
53667;BMP280;39568;51.026;5.468;2022-10-10T00:26:12;100636.50;;;6.69
53667;BMP280;39568;51.026;5.468;2022-10-10T00:28:39;100638.63;;;6.65
53667;BMP280;39568;51.026;5.468;2022-10-10T00:31:07;100634.38;;;6.59
53667;BMP280;39568;51.026;5.468;2022-10-10T00:33:34;100635.59;;;6.58
53667;BMP280;39568;51.026;5.468;2022-10-10T00:36:01;100632.22;;;6.57
53667;BMP280;39568;51.026;5.468;2022-10-10T00:38:28;100632.31;;;6.63
53667;BMP280;39568;51.026;5.468;2022-10-10T00:40:57;100636.50;;;6.69
53667;BMP280;39568;51.026;5.468;2022-10-10T00:43:25;100626.38;;;6.68
53667;BMP280;39568;51.026;5.468;2022-10-10T00:45:52;100630.19;;;6.67
53667;BMP280;39568;51.026;5.468;2022-10-10T00:48:24;100621.00;;;6.62
53667;BMP280;39568;51.026;5.468;2022-10-10T00:50:54;100629.09;;;6.59
53667;BMP280;39568;51.026;5.468;2022-10-10T00:53:26;100620.63;;;6.55
53667;BMP280;39568;51.026;5.468;2022-10-10T00:55:58;100618.53;;;6.59
53667;BMP280;39568;51.026;5.468;2022-10-10T00:58:25;100614.16;;;6.56
53667;BMP280;39568;51.026;5.468;2022-10-10T01:00:51;100622.28;;;6.52
53667;BMP280;39568;51.026;5.468;2022-10-10T01:03:35;100619.63;;;6.52
53667;BMP280;39568;51.026;5.468;2022-10-10T01:06:17;100617.63;;;6.47
53667;BMP280;39568;51.026;5.468;2022-10-10T01:08:54;100620.81;;;6.51
53667;BMP280;39568;51.026;5.468;2022-10-10T01:11:35;100615.81;;;6.53
53667;BMP280;39568;51.026;5.468;2022-10-10T01:14:14;100604.44;;;6.62
53667;BMP280;39568;51.026;5.468;2022-10-10T01:16:47;100614.88;;;6.71
53667;BMP280;39568;51.026;5.468;2022-10-10T01:19:33;100612.41;;;6.82
53667;BMP280;39568;51.026;5.468;2022-10-10T01:22:13;100613.81;;;6.92
53667;BMP280;39568;51.026;5.468;2022-10-10T01:24:53;100608.13;;;6.99
53667;BMP280;39568;51.026;5.468;2022-10-10T01:27:25;100610.50;;;6.97
53667;BMP280;39568;51.026;5.468;2022-10-10T01:30:00;100605.09;;;7.06
53667;BMP280;39568;51.026;5.468;2022-10-10T01:32:33;100605.31;;;7.03
53667;BMP280;39568;51.026;5.468;2022-10-10T01:35:29;100602.75;;;7.08
53667;BMP280;39568;51.026;5.468;2022-10-10T01:38:04;100603.41;;;7.03
53667;BMP280;39568;51.026;5.468;2022-10-10T01:40:40;100601.38;;;6.98
53667;BMP280;39568;51.026;5.468;2022-10-10T01:43:10;100600.59;;;6.92
53667;BMP280;39568;51.026;5.468;2022-10-10T01:45:42;100585.75;;;6.80
53667;BMP280;39568;51.026;5.468;2022-10-10T01:48:09;100587.53;;;6.74
53667;BMP280;39568;51.026;5.468;2022-10-10T01:50:47;100588.38;;;6.80
53667;BMP280;39568;51.026;5.468;2022-10-10T01:53:23;100583.34;;;6.67
53667;BMP280;39568;51.026;5.468;2022-10-10T01:55:54;100572.72;;;6.62
53667;BMP280;39568;51.026;5.468;2022-10-10T01:58:42;100577.44;;;6.58
53667;BMP280;39568;51.026;5.468;2022-10-10T02:01:17;100568.03;;;6.57
53667;BMP280;39568;51.026;5.468;2022-10-10T02:03:53;100575.88;;;6.51
53667;BMP280;39568;51.026;5.468;2022-10-10T02:06:25;100572.16;;;6.73
53667;BMP280;39568;51.026;5.468;2022-10-10T02:08:57;100576.88;;;6.68
53667;BMP280;39568;51.026;5.468;2022-10-10T02:11:25;100580.53;;;6.71
53667;BMP280;39568;51.026;5.468;2022-10-10T02:13:58;100561.56;;;6.73
53667;BMP280;39568;51.026;5.468;2022-10-10T02:16:30;100577.13;;;6.70
53667;BMP280;39568;51.026;5.468;2022-10-10T02:18:59;100579.44;;;6.63
53667;BMP280;39568;51.026;5.468;2022-10-10T02:21:27;100579.34;;;6.57
53667;BMP280;39568;51.026;5.468;2022-10-10T02:24:00;100575.16;;;6.51
53667;BMP280;39568;51.026;5.468;2022-10-10T02:26:27;100573.88;;;6.46
53667;BMP280;39568;51.026;5.468;2022-10-10T02:28:58;100579.06;;;6.70
53667;BMP280;39568;51.026;5.468;2022-10-10T02:31:31;100577.69;;;7.04
53667;BMP280;39568;51.026;5.468;2022-10-10T02:34:05;100585.69;;;7.30
53667;BMP280;39568;51.026;5.468;2022-10-10T02:36:41;100581.06;;;7.59
53667;BMP280;39568;51.026;5.468;2022-10-10T02:39:09;100579.41;;;7.88
53667;BMP280;39568;51.026;5.468;2022-10-10T02:41:39;100583.97;;;8.07
53667;BMP280;39568;51.026;5.468;2022-10-10T02:44:19;100579.59;;;8.56
53667;BMP280;39568;51.026;5.468;2022-10-10T02:46:48;100574.31;;;8.98
53667;BMP280;39568;51.026;5.468;2022-10-10T02:49:21;100573.97;;;9.16
53667;BMP280;39568;51.026;5.468;2022-10-10T02:51:48;100571.38;;;9.33
53667;BMP280;39568;51.026;5.468;2022-10-10T02:54:19;100577.69;;;9.41
53667;BMP280;39568;51.026;5.468;2022-10-10T02:56:46;100567.81;;;9.47
53667;BMP280;39568;51.026;5.468;2022-10-10T02:59:12;100570.72;;;9.49
53667;BMP280;39568;51.026;5.468;2022-10-10T03:01:39;100567.09;;;9.46
53667;BMP280;39568;51.026;5.468;2022-10-10T03:04:08;100567.59;;;9.50
53667;BMP280;39568;51.026;5.468;2022-10-10T03:06:35;100557.72;;;9.51
53667;BMP280;39568;51.026;5.468;2022-10-10T03:09:02;100561.81;;;9.57
53667;BMP280;39568;51.026;5.468;2022-10-10T03:11:30;100561.31;;;9.53
53667;BMP280;39568;51.026;5.468;2022-10-10T03:13:58;100569.53;;;9.55
53667;BMP280;39568;51.026;5.468;2022-10-10T03:16:28;100560.56;;;9.53
53667;BMP280;39568;51.026;5.468;2022-10-10T03:18:55;100555.03;;;9.56
53667;BMP280;39568;51.026;5.468;2022-10-10T03:21:23;100560.81;;;9.49
53667;BMP280;39568;51.026;5.468;2022-10-10T03:23:50;100558.00;;;9.75
53667;BMP280;39568;51.026;5.468;2022-10-10T03:26:16;100553.41;;;9.81
53667;BMP280;39568;51.026;5.468;2022-10-10T03:28:43;100554.81;;;9.71
53667;BMP280;39568;51.026;5.468;2022-10-10T03:31:12;100555.56;;;9.72
53667;BMP280;39568;51.026;5.468;2022-10-10T03:33:39;100558.00;;;9.81
53667;BMP280;39568;51.026;5.468;2022-10-10T03:36:06;100545.47;;;9.98
53667;BMP280;39568;51.026;5.468;2022-10-10T03:38:34;100559.97;;;9.97
53667;BMP280;39568;51.026;5.468;2022-10-10T03:41:07;100558.53;;;9.96
53667;BMP280;39568;51.026;5.468;2022-10-10T03:43:33;100551.97;;;9.91
53667;BMP280;39568;51.026;5.468;2022-10-10T03:46:00;100551.53;;;9.98
53667;BMP280;39568;51.026;5.468;2022-10-10T03:48:27;100544.75;;;9.97
53667;BMP280;39568;51.026;5.468;2022-10-10T03:50:53;100548.88;;;10.04
53667;BMP280;39568;51.026;5.468;2022-10-10T03:53:20;100553.47;;;10.09
53667;BMP280;39568;51.026;5.468;2022-10-10T03:55:48;100554.91;;;10.04
53667;BMP280;39568;51.026;5.468;2022-10-10T03:58:15;100548.88;;;10.09
53667;BMP280;39568;51.026;5.468;2022-10-10T04:00:42;100555.16;;;10.12
53667;BMP280;39568;51.026;5.468;2022-10-10T04:03:15;100546.44;;;10.06
53667;BMP280;39568;51.026;5.468;2022-10-10T04:05:42;100547.19;;;10.17
53667;BMP280;39568;51.026;5.468;2022-10-10T04:08:16;100537.53;;;10.20
53667;BMP280;39568;51.026;5.468;2022-10-10T04:10:47;100544.78;;;10.25
53667;BMP280;39568;51.026;5.468;2022-10-10T04:13:15;100545.97;;;10.24
53667;BMP280;39568;51.026;5.468;2022-10-10T04:15:41;100549.34;;;10.41
53667;BMP280;39568;51.026;5.468;2022-10-10T04:18:08;100540.91;;;10.37
53667;BMP280;39568;51.026;5.468;2022-10-10T04:20:38;100542.81;;;10.42
53667;BMP280;39568;51.026;5.468;2022-10-10T04:23:11;100541.84;;;10.40
53667;BMP280;39568;51.026;5.468;2022-10-10T04:25:41;100545.72;;;10.39
53667;BMP280;39568;51.026;5.468;2022-10-10T04:28:10;100542.84;;;10.37
53667;BMP280;39568;51.026;5.468;2022-10-10T04:30:38;100538.22;;;10.26
53667;BMP280;39568;51.026;5.468;2022-10-10T04:33:05;100540.88;;;10.32
53667;BMP280;39568;51.026;5.468;2022-10-10T04:35:32;100542.34;;;10.33
53667;BMP280;39568;51.026;5.468;2022-10-10T04:37:59;100542.59;;;10.29
53667;BMP280;39568;51.026;5.468;2022-10-10T04:40:28;100546.69;;;10.41
53667;BMP280;39568;51.026;5.468;2022-10-10T04:42:55;100545.00;;;10.49
53667;BMP280;39568;51.026;5.468;2022-10-10T04:45:22;100545.00;;;10.49
53667;BMP280;39568;51.026;5.468;2022-10-10T04:47:52;100545.94;;;10.46
53667;BMP280;39568;51.026;5.468;2022-10-10T04:50:19;100547.91;;;10.40
53667;BMP280;39568;51.026;5.468;2022-10-10T04:52:53;100544.97;;;10.38
53667;BMP280;39568;51.026;5.468;2022-10-10T04:55:19;100549.34;;;10.30
53667;BMP280;39568;51.026;5.468;2022-10-10T04:57:46;100553.69;;;10.22
53667;BMP280;39568;51.026;5.468;2022-10-10T05:00:13;100552.28;;;10.21
53667;BMP280;39568;51.026;5.468;2022-10-10T05:02:41;100548.16;;;10.09
53667;BMP280;39568;51.026;5.468;2022-10-10T05:05:11;100559.50;;;10.09
53667;BMP280;39568;51.026;5.468;2022-10-10T05:07:41;100550.31;;;10.05
53667;BMP280;39568;51.026;5.468;2022-10-10T05:10:08;100543.78;;;10.06
53667;BMP280;39568;51.026;5.468;2022-10-10T05:12:37;100546.44;;;10.06
53667;BMP280;39568;51.026;5.468;2022-10-10T05:15:07;100544.75;;;9.97
53667;BMP280;39568;51.026;5.468;2022-10-10T05:17:34;100547.41;;;10.03
53667;BMP280;39568;51.026;5.468;2022-10-10T05:20:01;100556.56;;;9.91
53667;BMP280;39568;51.026;5.468;2022-10-10T05:22:29;100544.22;;;9.88
53667;BMP280;39568;51.026;5.468;2022-10-10T05:24:56;100553.44;;;9.87
53667;BMP280;39568;51.026;5.468;2022-10-10T05:27:24;100543.53;;;9.93
53667;BMP280;39568;51.026;5.468;2022-10-10T05:29:50;100557.78;;;9.90
53667;BMP280;39568;51.026;5.468;2022-10-10T05:32:17;100555.63;;;9.94
53667;BMP280;39568;51.026;5.468;2022-10-10T05:34:44;100552.22;;;9.88
53667;BMP280;39568;51.026;5.468;2022-10-10T05:37:10;100558.03;;;9.92
53667;BMP280;39568;51.026;5.468;2022-10-10T05:39:41;100558.97;;;9.89
53667;BMP280;39568;51.026;5.468;2022-10-10T05:42:08;100560.94;;;9.83
53667;BMP280;39568;51.026;5.468;2022-10-10T05:44:40;100550.53;;;9.90
53667;BMP280;39568;51.026;5.468;2022-10-10T05:47:09;100550.78;;;9.87
53667;BMP280;39568;51.026;5.468;2022-10-10T05:49:36;100559.03;;;9.94
53667;BMP280;39568;51.026;5.468;2022-10-10T05:52:05;100564.81;;;9.98
53667;BMP280;39568;51.026;5.468;2022-10-10T05:54:31;100563.59;;;9.99
53667;BMP280;39568;51.026;5.468;2022-10-10T05:56:59;100568.91;;;9.99
53667;BMP280;39568;51.026;5.468;2022-10-10T05:59:27;100558.28;;;10.10
53667;BMP280;39568;51.026;5.468;2022-10-10T06:01:54;100559.50;;;10.15
53667;BMP280;39568;51.026;5.468;2022-10-10T06:04:22;100562.41;;;10.17
53667;BMP280;39568;51.026;5.468;2022-10-10T06:06:49;100561.69;;;10.16
53667;BMP280;39568;51.026;5.468;2022-10-10T06:09:15;100556.13;;;10.20
53667;BMP280;39568;51.026;5.468;2022-10-10T06:11:42;100557.06;;;10.23
53667;BMP280;39568;51.026;5.468;2022-10-10T06:14:10;100555.16;;;10.29
53667;BMP280;39568;51.026;5.468;2022-10-10T06:16:37;100557.34;;;10.36
53667;BMP280;39568;51.026;5.468;2022-10-10T06:19:04;100553.94;;;10.41
53667;BMP280;39568;51.026;5.468;2022-10-10T06:21:31;100550.56;;;10.51
53667;BMP280;39568;51.026;5.468;2022-10-10T06:23:58;100549.31;;;10.69
53667;BMP280;39568;51.026;5.468;2022-10-10T06:26:24;100552.69;;;10.69
53667;BMP280;39568;51.026;5.468;2022-10-10T06:28:51;100555.09;;;10.73
53667;BMP280;39568;51.026;5.468;2022-10-10T06:31:19;100549.50;;;10.82
53667;BMP280;39568;51.026;5.468;2022-10-10T06:33:46;100566.22;;;10.82
53667;BMP280;39568;51.026;5.468;2022-10-10T06:36:14;100557.03;;;10.84
53667;BMP280;39568;51.026;5.468;2022-10-10T06:38:45;100560.16;;;10.88
53667;BMP280;39568;51.026;5.468;2022-10-10T06:41:15;100563.09;;;10.78
53667;BMP280;39568;51.026;5.468;2022-10-10T06:43:41;100563.81;;;10.73
53667;BMP280;39568;51.026;5.468;2022-10-10T06:46:10;100562.13;;;10.76
53667;BMP280;39568;51.026;5.468;2022-10-10T06:48:40;100561.88;;;10.79
53667;BMP280;39568;51.026;5.468;2022-10-10T06:51:13;100571.78;;;10.79
53667;BMP280;39568;51.026;5.468;2022-10-10T06:53:40;100570.81;;;10.82
53667;BMP280;39568;51.026;5.468;2022-10-10T06:56:08;100569.56;;;10.89
53667;BMP280;39568;51.026;5.468;2022-10-10T06:58:40;100561.09;;;11.01
53667;BMP280;39568;51.026;5.468;2022-10-10T07:01:08;100566.84;;;11.11
53667;BMP280;39568;51.026;5.468;2022-10-10T07:03:35;100566.84;;;11.16
53667;BMP280;39568;51.026;5.468;2022-10-10T07:06:11;100572.88;;;11.22
53667;BMP280;39568;51.026;5.468;2022-10-10T07:08:48;100570.66;;;11.26
53667;BMP280;39568;51.026;5.468;2022-10-10T07:11:15;100574.78;;;11.27
53667;BMP280;39568;51.026;5.468;2022-10-10T07:13:42;100587.13;;;11.30
53667;BMP280;39568;51.026;5.468;2022-10-10T07:16:09;100586.59;;;11.37
53667;BMP280;39568;51.026;5.468;2022-10-10T07:18:36;100586.84;;;11.39
53667;BMP280;39568;51.026;5.468;2022-10-10T07:21:04;100587.00;;;11.58
53667;BMP280;39568;51.026;5.468;2022-10-10T07:23:31;100595.41;;;11.68
53667;BMP280;39568;51.026;5.468;2022-10-10T07:25:59;100596.84;;;11.74
53667;BMP280;39568;51.026;5.468;2022-10-10T07:28:27;100606.47;;;11.83
53667;BMP280;39568;51.026;5.468;2022-10-10T07:30:58;100604.69;;;11.96
53667;BMP280;39568;51.026;5.468;2022-10-10T07:33:26;100602.94;;;12.04
53667;BMP280;39568;51.026;5.468;2022-10-10T07:36:06;100611.88;;;12.13
53667;BMP280;39568;51.026;5.468;2022-10-10T07:38:33;100622.91;;;12.22
53667;BMP280;39568;51.026;5.468;2022-10-10T07:41:04;100619.22;;;12.31
53667;BMP280;39568;51.026;5.468;2022-10-10T07:43:39;100618.69;;;12.38
53667;BMP280;39568;51.026;5.468;2022-10-10T07:46:13;100619.25;;;12.55
53667;BMP280;39568;51.026;5.468;2022-10-10T07:48:40;100628.09;;;12.68
53667;BMP280;39568;51.026;5.468;2022-10-10T07:51:15;100631.47;;;12.69
53667;BMP280;39568;51.026;5.468;2022-10-10T07:53:45;100624.38;;;12.77
53667;BMP280;39568;51.026;5.468;2022-10-10T07:56:12;100628.06;;;12.74
53667;BMP280;39568;51.026;5.468;2022-10-10T07:58:39;100633.72;;;12.89
53667;BMP280;39568;51.026;5.468;2022-10-10T08:01:07;100621.94;;;13.22
53667;BMP280;39568;51.026;5.468;2022-10-10T08:03:34;100626.44;;;13.51
53667;BMP280;39568;51.026;5.468;2022-10-10T08:06:02;100631.78;;;13.70
53667;BMP280;39568;51.026;5.468;2022-10-10T08:08:30;100622.03;;;14.17
53667;BMP280;39568;51.026;5.468;2022-10-10T08:10:57;100631.19;;;14.53
53667;BMP280;39568;51.026;5.468;2022-10-10T08:13:24;100628.91;;;14.97
53667;BMP280;39568;51.026;5.468;2022-10-10T08:15:51;100635.56;;;15.29
53667;BMP280;39568;51.026;5.468;2022-10-10T08:18:18;100633.22;;;15.00
53667;BMP280;39568;51.026;5.468;2022-10-10T08:20:45;100640.97;;;14.77
53667;BMP280;39568;51.026;5.468;2022-10-10T08:23:12;100634.25;;;14.97
53667;BMP280;39568;51.026;5.468;2022-10-10T08:25:40;100641.72;;;15.58
53667;BMP280;39568;51.026;5.468;2022-10-10T08:28:07;100642.84;;;16.25
53667;BMP280;39568;51.026;5.468;2022-10-10T08:30:34;100647.41;;;17.01
53667;BMP280;39568;51.026;5.468;2022-10-10T08:33:05;100665.31;;;17.80
53667;BMP280;39568;51.026;5.468;2022-10-10T08:35:36;100656.56;;;18.64
53667;BMP280;39568;51.026;5.468;2022-10-10T08:38:04;100654.09;;;18.43
53667;BMP280;39568;51.026;5.468;2022-10-10T08:40:44;100654.91;;;19.16
53667;BMP280;39568;51.026;5.468;2022-10-10T08:43:18;100662.09;;;19.70
53667;BMP280;39568;51.026;5.468;2022-10-10T08:45:46;100654.91;;;19.65
53667;BMP280;39568;51.026;5.468;2022-10-10T08:48:15;100655.41;;;19.22
53667;BMP280;39568;51.026;5.468;2022-10-10T08:50:48;100668.66;;;18.95
53667;BMP280;39568;51.026;5.468;2022-10-10T08:53:21;100653.81;;;18.17
53667;BMP280;39568;51.026;5.468;2022-10-10T08:55:51;100666.75;;;17.81
53667;BMP280;39568;51.026;5.468;2022-10-10T08:58:21;100668.72;;;18.18
53667;BMP280;39568;51.026;5.468;2022-10-10T09:00:54;100675.88;;;18.08
53667;BMP280;39568;51.026;5.468;2022-10-10T09:03:26;100686.38;;;18.66
53667;BMP280;39568;51.026;5.468;2022-10-10T09:06:06;100677.16;;;18.22
53667;BMP280;39568;51.026;5.468;2022-10-10T09:08:50;100681.41;;;17.64
53667;BMP280;39568;51.026;5.468;2022-10-10T09:11:30;100683.06;;;17.67
53667;BMP280;39568;51.026;5.468;2022-10-10T09:14:06;100684.91;;;17.29
53667;BMP280;39568;51.026;5.468;2022-10-10T09:16:39;100684.06;;;16.91
53667;BMP280;39568;51.026;5.468;2022-10-10T09:19:17;100688.88;;;17.21
53667;BMP280;39568;51.026;5.468;2022-10-10T09:21:49;100693.66;;;17.96
53667;BMP280;39568;51.026;5.468;2022-10-10T09:24:19;100700.69;;;18.91
53667;BMP280;39568;51.026;5.468;2022-10-10T09:26:50;100696.88;;;19.34
53667;BMP280;39568;51.026;5.468;2022-10-10T09:29:27;100691.78;;;19.46
53667;BMP280;39568;51.026;5.468;2022-10-10T09:31:59;100698.22;;;19.18
53667;BMP280;39568;51.026;5.468;2022-10-10T09:34:33;100686.56;;;19.40
53667;BMP280;39568;51.026;5.468;2022-10-10T09:37:02;100700.59;;;19.14
53667;BMP280;39568;51.026;5.468;2022-10-10T09:39:34;100693.88;;;19.22
53667;BMP280;39568;51.026;5.468;2022-10-10T09:42:14;100693.69;;;19.20
53667;BMP280;39568;51.026;5.468;2022-10-10T09:44:43;100714.94;;;18.77
53667;BMP280;39568;51.026;5.468;2022-10-10T09:47:11;100711.16;;;18.72
53667;BMP280;39568;51.026;5.468;2022-10-10T09:49:44;100703.66;;;19.43
53667;BMP280;39568;51.026;5.468;2022-10-10T09:52:23;100696.06;;;19.49
53667;BMP280;39568;51.026;5.468;2022-10-10T09:54:55;100700.34;;;19.59
53667;BMP280;39568;51.026;5.468;2022-10-10T09:57:32;100702.31;;;19.59
53667;BMP280;39568;51.026;5.468;2022-10-10T10:00:31;100700.34;;;19.27
53667;BMP280;39568;51.026;5.468;2022-10-10T10:03:13;100700.88;;;19.25
53667;BMP280;39568;51.026;5.468;2022-10-10T10:05:43;100716.81;;;19.71
53667;BMP280;39568;51.026;5.468;2022-10-10T10:08:24;100705.47;;;20.31
53667;BMP280;39568;51.026;5.468;2022-10-10T10:10:56;100711.25;;;20.79
53667;BMP280;39568;51.026;5.468;2022-10-10T10:13:30;100713.34;;;20.37
53667;BMP280;39568;51.026;5.468;2022-10-10T10:16:04;100715.94;;;19.85
53667;BMP280;39568;51.026;5.468;2022-10-10T10:18:37;100711.28;;;19.61
53667;BMP280;39568;51.026;5.468;2022-10-10T10:21:11;100714.56;;;19.52
53667;BMP280;39568;51.026;5.468;2022-10-10T10:23:41;100713.97;;;19.61
53667;BMP280;39568;51.026;5.468;2022-10-10T10:26:16;100712.09;;;19.14
53667;BMP280;39568;51.026;5.468;2022-10-10T10:28:45;100720.50;;;18.71
53667;BMP280;39568;51.026;5.468;2022-10-10T10:31:20;100719.69;;;18.46
53667;BMP280;39568;51.026;5.468;2022-10-10T10:33:56;100718.78;;;18.06
53667;BMP280;39568;51.026;5.468;2022-10-10T10:36:33;100727.78;;;18.23
53667;BMP280;39568;51.026;5.468;2022-10-10T10:39:12;100727.94;;;18.25
53667;BMP280;39568;51.026;5.468;2022-10-10T10:41:44;100721.81;;;18.47
53667;BMP280;39568;51.026;5.468;2022-10-10T10:44:28;100738.88;;;18.35
53667;BMP280;39568;51.026;5.468;2022-10-10T10:47:06;100730.09;;;18.27
53667;BMP280;39568;51.026;5.468;2022-10-10T10:49:39;100728.78;;;18.58
53667;BMP280;39568;51.026;5.468;2022-10-10T10:52:31;100732.78;;;18.49
53667;BMP280;39568;51.026;5.468;2022-10-10T10:55:14;100731.75;;;18.15
53667;BMP280;39568;51.026;5.468;2022-10-10T10:57:55;100729.56;;;18.21
53667;BMP280;39568;51.026;5.468;2022-10-10T11:00:29;100725.91;;;18.64
53667;BMP280;39568;51.026;5.468;2022-10-10T11:03:09;100734.84;;;18.89
53667;BMP280;39568;51.026;5.468;2022-10-10T11:05:44;100739.13;;;18.99
53667;BMP280;39568;51.026;5.468;2022-10-10T11:08:28;100748.06;;;19.09
53667;BMP280;39568;51.026;5.468;2022-10-10T11:11:07;100747.84;;;19.22
53667;BMP280;39568;51.026;5.468;2022-10-10T11:13:43;100735.09;;;19.15
53667;BMP280;39568;51.026;5.468;2022-10-10T11:16:15;100740.81;;;19.27
53667;BMP280;39568;51.026;5.468;2022-10-10T11:18:50;100727.59;;;19.71
53667;BMP280;39568;51.026;5.468;2022-10-10T11:21:21;100738.59;;;19.90
53667;BMP280;39568;51.026;5.468;2022-10-10T11:23:53;100731.13;;;20.91
53667;BMP280;39568;51.026;5.468;2022-10-10T11:26:23;100736.00;;;20.75
53667;BMP280;39568;51.026;5.468;2022-10-10T11:28:54;100734.41;;;20.55
53667;BMP280;39568;51.026;5.468;2022-10-10T11:31:24;100733.72;;;20.81
53667;BMP280;39568;51.026;5.468;2022-10-10T11:33:57;100736.44;;;20.81
53667;BMP280;39568;51.026;5.468;2022-10-10T11:36:27;100741.09;;;20.71
53667;BMP280;39568;51.026;5.468;2022-10-10T11:38:58;100740.09;;;20.93
53667;BMP280;39568;51.026;5.468;2022-10-10T11:41:32;100750.78;;;20.40
53667;BMP280;39568;51.026;5.468;2022-10-10T11:44:07;100753.88;;;20.71
53667;BMP280;39568;51.026;5.468;2022-10-10T11:46:44;100755.31;;;21.16
53667;BMP280;39568;51.026;5.468;2022-10-10T11:49:18;100757.09;;;21.30
53667;BMP280;39568;51.026;5.468;2022-10-10T11:52:11;100756.59;;;21.15
53667;BMP280;39568;51.026;5.468;2022-10-10T11:54:44;100752.16;;;21.10
53667;BMP280;39568;51.026;5.468;2022-10-10T11:57:17;100748.28;;;21.30
53667;BMP280;39568;51.026;5.468;2022-10-10T11:59:47;100748.88;;;21.38
53667;BMP280;39568;51.026;5.468;2022-10-10T12:02:21;100753.56;;;21.64
53667;BMP280;39568;51.026;5.468;2022-10-10T12:04:49;100755.00;;;21.65
53667;BMP280;39568;51.026;5.468;2022-10-10T12:07:20;100747.00;;;22.41
53667;BMP280;39568;51.026;5.468;2022-10-10T12:09:51;100756.31;;;23.17
53667;BMP280;39568;51.026;5.468;2022-10-10T12:12:20;100750.28;;;23.79
53667;BMP280;39568;51.026;5.468;2022-10-10T12:14:49;100754.09;;;23.86
53667;BMP280;39568;51.026;5.468;2022-10-10T12:17:24;100744.88;;;24.66
53667;BMP280;39568;51.026;5.468;2022-10-10T12:19:54;100739.28;;;25.79
53667;BMP280;39568;51.026;5.468;2022-10-10T12:22:23;100736.94;;;25.74
53667;BMP280;39568;51.026;5.468;2022-10-10T12:25:20;100750.16;;;24.20
53667;BMP280;39568;51.026;5.468;2022-10-10T12:28:04;100746.56;;;22.64
53667;BMP280;39568;51.026;5.468;2022-10-10T12:30:31;100752.38;;;21.94
53667;BMP280;39568;51.026;5.468;2022-10-10T12:32:59;100757.56;;;21.36
53667;BMP280;39568;51.026;5.468;2022-10-10T12:35:39;100751.44;;;21.09
53667;BMP280;39568;51.026;5.468;2022-10-10T12:38:23;100756.22;;;21.01
53667;BMP280;39568;51.026;5.468;2022-10-10T12:41:17;100759.13;;;20.52
53667;BMP280;39568;51.026;5.468;2022-10-10T12:43:50;100769.59;;;19.89
53667;BMP280;39568;51.026;5.468;2022-10-10T12:46:20;100766.22;;;19.49
53667;BMP280;39568;51.026;5.468;2022-10-10T12:49:13;100765.00;;;19.42
53667;BMP280;39568;51.026;5.468;2022-10-10T12:51:41;100768.00;;;19.54
53667;BMP280;39568;51.026;5.468;2022-10-10T12:54:22;100766.06;;;19.47
53667;BMP280;39568;51.026;5.468;2022-10-10T12:57:19;100762.63;;;19.54
53667;BMP280;39568;51.026;5.468;2022-10-10T12:59:55;100763.69;;;19.51
53667;BMP280;39568;51.026;5.468;2022-10-10T13:02:24;100764.13;;;19.40
53667;BMP280;39568;51.026;5.468;2022-10-10T13:04:56;100755.84;;;19.38
53667;BMP280;39568;51.026;5.468;2022-10-10T13:07:23;100756.38;;;19.44
53667;BMP280;39568;51.026;5.468;2022-10-10T13:09:52;100758.91;;;19.34
53667;BMP280;39568;51.026;5.468;2022-10-10T13:12:22;100766.28;;;19.33
53667;BMP280;39568;51.026;5.468;2022-10-10T13:14:49;100766.22;;;19.16
53667;BMP280;39568;51.026;5.468;2022-10-10T13:17:21;100769.81;;;19.11
53667;BMP280;39568;51.026;5.468;2022-10-10T13:19:50;100769.25;;;19.13
53667;BMP280;39568;51.026;5.468;2022-10-10T13:22:19;100771.09;;;19.10
53667;BMP280;39568;51.026;5.468;2022-10-10T13:24:47;100768.41;;;19.03
53667;BMP280;39568;51.026;5.468;2022-10-10T13:27:20;100778.28;;;19.08
53667;BMP280;39568;51.026;5.468;2022-10-10T13:29:51;100779.19;;;19.10
53667;BMP280;39568;51.026;5.468;2022-10-10T13:32:20;100785.47;;;19.05
53667;BMP280;39568;51.026;5.468;2022-10-10T13:34:51;100786.16;;;19.13
53667;BMP280;39568;51.026;5.468;2022-10-10T13:37:20;100794.50;;;19.00
53667;BMP280;39568;51.026;5.468;2022-10-10T13:39:48;100798.84;;;18.81
53667;BMP280;39568;51.026;5.468;2022-10-10T13:42:27;100799.94;;;18.70
53667;BMP280;39568;51.026;5.468;2022-10-10T13:44:55;100803.19;;;18.69
53667;BMP280;39568;51.026;5.468;2022-10-10T13:47:48;100807.50;;;18.64
53667;BMP280;39568;51.026;5.468;2022-10-10T13:50:21;100810.34;;;18.43
53667;BMP280;39568;51.026;5.468;2022-10-10T13:52:50;100804.25;;;18.43
53667;BMP280;39568;51.026;5.468;2022-10-10T13:55:39;100809.84;;;18.45
53667;BMP280;39568;51.026;5.468;2022-10-10T13:58:07;100806.94;;;18.43
53667;BMP280;39568;51.026;5.468;2022-10-10T14:00:36;100809.19;;;19.07
53667;BMP280;39568;51.026;5.468;2022-10-10T14:03:12;100830.75;;;19.62
53667;BMP280;39568;51.026;5.468;2022-10-10T14:05:42;100827.66;;;20.98
53667;BMP280;39568;51.026;5.468;2022-10-10T14:08:18;100833.00;;;21.23
53667;BMP280;39568;51.026;5.468;2022-10-10T14:10:55;100830.94;;;20.96
53667;BMP280;39568;51.026;5.468;2022-10-10T14:13:22;100830.59;;;20.58
53667;BMP280;39568;51.026;5.468;2022-10-10T14:15:50;100833.38;;;20.51
53667;BMP280;39568;51.026;5.468;2022-10-10T14:18:18;100851.72;;;20.35
53667;BMP280;39568;51.026;5.468;2022-10-10T14:20:46;100843.81;;;19.73
53667;BMP280;39568;51.026;5.468;2022-10-10T14:23:14;100851.09;;;19.63
53667;BMP280;39568;51.026;5.468;2022-10-10T14:25:44;100850.56;;;19.57